Time;durP1;ratioP1;P1;durP2;ratioP2;P2;SDS_P1;SDS_P2;PMS_P1;PMS_P2;Temp;Humidity;BMP_temperature;BMP_pressure;BME280_temperature;BME280_humidity;BME280_pressure;Samples;Min_cycle;Max_cycle;Signal;HPM_P1;HPM_P2
2022/09/11 00:01:26;;;;;;;20.90;4.45;;;25.70;99.90;;;;;;5054647;28;20043;-72
2022/09/11 00:03:53;;;;;;;13.13;3.00;;;25.80;99.90;;;;;;5055801;28;20032;-71
2022/09/11 00:06:20;;;;;;;12.48;3.53;;;25.80;99.90;;;;;;5055226;28;20086;-71
2022/09/11 00:08:50;;;;;;;8.27;3.20;;;25.90;99.90;;;;;;5055703;28;20524;-72
2022/09/11 00:11:19;;;;;;;14.20;3.47;;;25.90;99.90;;;;;;5055336;28;20025;-71
2022/09/11 00:13:48;;;;;;;14.45;3.85;;;25.90;99.90;;;;;;5053829;28;20495;-72
2022/09/11 00:16:21;;;;;;;13.25;3.65;;;25.80;99.90;;;;;;5053812;28;20104;-71
2022/09/11 00:18:52;;;;;;;14.20;3.22;;;25.80;99.90;;;;;;5055188;28;20098;-73
2022/09/11 00:21:19;;;;;;;14.93;3.70;;;25.70;99.90;;;;;;5055001;28;20033;-72
2022/09/11 00:23:48;;;;;;;16.85;3.65;;;25.70;99.90;;;;;;5055250;28;20085;-72
2022/09/11 00:26:16;;;;;;;13.73;3.67;;;25.70;99.90;;;;;;5055049;28;20054;-72
2022/09/11 00:28:42;;;;;;;13.52;3.80;;;25.60;99.90;;;;;;5054963;28;20544;-72
2022/09/11 00:31:16;;;;;;;10.52;3.50;;;25.60;99.90;;;;;;5054808;28;20512;-71
2022/09/11 00:33:42;;;;;;;17.45;4.03;;;25.50;99.90;;;;;;5055247;28;20029;-72
2022/09/11 00:36:17;;;;;;;10.32;3.30;;;25.40;99.90;;;;;;5054831;28;20025;-71
2022/09/11 00:38:45;;;;;;;16.38;3.38;;;25.50;99.90;;;;;;5054979;28;20132;-71
2022/09/11 00:41:17;;;;;;;12.93;3.40;;;25.50;99.90;;;;;;5054844;28;20017;-72
2022/09/11 00:44:02;;;;;;;13.90;3.70;;;25.60;99.90;;;;;;5054880;28;20124;-72
2022/09/11 00:46:46;;;;;;;12.07;3.55;;;25.50;99.90;;;;;;5054331;28;20036;-71
2022/09/11 00:49:39;;;;;;;14.25;3.33;;;25.40;99.90;;;;;;5055078;28;20021;-72
2022/09/11 00:52:10;;;;;;;15.13;4.03;;;25.30;99.90;;;;;;5053089;28;20397;-71
2022/09/11 00:54:53;;;;;;;17.67;4.15;;;25.30;99.90;;;;;;5054843;28;20033;-71
2022/09/11 00:57:22;;;;;;;15.57;4.25;;;25.30;99.90;;;;;;5054809;28;20025;-71
2022/09/11 00:59:50;;;;;;;11.45;3.42;;;25.30;99.90;;;;;;5054567;28;20043;-72
2022/09/11 01:02:21;;;;;;;10.23;3.13;;;25.20;99.90;;;;;;5054459;28;20430;-72
2022/09/11 01:04:47;;;;;;;14.25;3.38;;;25.30;99.90;;;;;;5054554;28;20462;-72
2022/09/11 01:07:17;;;;;;;17.45;3.70;;;25.20;99.90;;;;;;5053035;28;20038;-72
2022/09/11 01:09:43;;;;;;;13.52;3.20;;;25.20;99.90;;;;;;5054264;28;20037;-72
2022/09/11 01:12:30;;;;;;;13.70;3.30;;;25.20;99.90;;;;;;5054642;28;20025;-72
2022/09/11 01:15:02;;;;;;;13.02;3.25;;;25.20;99.90;;;;;;5054584;28;20032;-72
2022/09/11 01:17:38;;;;;;;13.10;3.50;;;25.10;99.90;;;;;;5054046;28;20032;-72
2022/09/11 01:20:42;;;;;;;11.80;3.13;;;25.10;99.90;;;;;;5054465;28;20025;-72
2022/09/11 01:23:36;;;;;;;14.13;3.58;;;25.20;99.90;;;;;;5053845;28;20128;-72
2022/09/11 01:26:39;;;;;;;9.98;3.40;;;25.20;99.90;;;;;;5054336;28;20087;-72
2022/09/11 01:29:39;;;;;;;12.10;3.30;;;25.10;99.90;;;;;;5053849;28;20043;-71
2022/09/11 01:32:31;;;;;;;13.82;3.40;;;25.10;99.90;;;;;;5050645;28;20083;-72
2022/09/11 01:35:14;;;;;;;12.27;3.58;;;25.10;99.90;;;;;;5052620;28;20044;-72
2022/09/11 01:37:48;;;;;;;15.05;3.30;;;25.10;99.90;;;;;;5054153;28;20457;-72
2022/09/11 01:40:29;;;;;;;12.80;3.55;;;25.00;99.90;;;;;;5053827;28;20485;-72
2022/09/11 01:43:08;;;;;;;13.70;3.28;;;25.00;99.90;;;;;;5053947;28;20118;-72
2022/09/11 01:45:36;;;;;;;17.50;4.00;;;25.00;99.90;;;;;;5053971;28;20040;-72
2022/09/11 01:48:03;;;;;;;13.23;3.78;;;25.00;99.90;;;;;;5052085;28;20056;-72
2022/09/11 01:50:31;;;;;;;12.95;3.20;;;25.00;99.90;;;;;;5053620;28;20017;-71
2022/09/11 01:53:02;;;;;;;12.93;3.42;;;25.00;99.90;;;;;;5053570;28;20112;-71
2022/09/11 01:55:34;;;;;;;13.38;3.28;;;25.00;99.90;;;;;;5053503;28;20022;-71
2022/09/11 01:58:07;;;;;;;14.27;3.33;;;24.90;99.90;;;;;;5053229;28;20025;-71
2022/09/11 02:00:35;;;;;;;13.93;3.33;;;24.90;99.90;;;;;;5053473;28;20476;-71
2022/09/11 02:03:24;;;;;;;13.82;3.60;;;24.90;99.90;;;;;;5053273;28;20495;-71
2022/09/11 02:06:17;;;;;;;13.38;3.45;;;24.90;99.90;;;;;;5053326;28;20053;-71
2022/09/11 02:08:45;;;;;;;13.85;3.17;;;24.90;99.90;;;;;;5050597;28;20041;-70
2022/09/11 02:11:14;;;;;;;12.10;3.45;;;25.00;99.90;;;;;;5051611;28;20114;-70
2022/09/11 02:13:53;;;;;;;10.60;3.40;;;24.90;99.90;;;;;;5052976;28;20032;-70
2022/09/11 02:16:45;;;;;;;16.88;3.53;;;24.90;99.90;;;;;;5053321;28;20075;-71
2022/09/11 02:19:14;;;;;;;16.70;3.35;;;24.80;99.90;;;;;;5049950;28;20128;-71
2022/09/11 02:21:41;;;;;;;10.18;3.78;;;24.80;99.90;;;;;;5051399;28;20065;-71
2022/09/11 02:24:08;;;;;;;11.05;3.60;;;24.80;99.90;;;;;;5052792;28;20100;-71
2022/09/11 02:26:39;;;;;;;18.85;4.28;;;24.70;99.90;;;;;;5052946;28;20461;-71
2022/09/11 02:29:06;;;;;;;12.52;3.70;;;24.60;99.90;;;;;;5053230;28;20032;-71
2022/09/11 02:31:34;;;;;;;17.98;3.85;;;24.60;99.90;;;;;;5052411;28;20202;-71
2022/09/11 02:34:01;;;;;;;14.10;3.50;;;24.60;99.90;;;;;;5052978;28;20100;-71
2022/09/11 02:36:40;;;;;;;9.23;3.20;;;24.70;99.90;;;;;;5052559;28;20112;-70
2022/09/11 02:39:33;;;;;;;13.55;3.53;;;24.70;99.90;;;;;;5052992;28;20100;-71
2022/09/11 02:42:18;;;;;;;10.38;2.97;;;24.70;99.90;;;;;;5052797;28;20036;-70
2022/09/11 02:44:59;;;;;;;9.93;3.25;;;24.70;99.90;;;;;;5052844;28;20066;-71
2022/09/11 02:48:03;;;;;;;13.30;3.10;;;24.70;99.90;;;;;;5052600;28;20025;-70
2022/09/11 02:51:14;;;;;;;9.43;2.70;;;24.70;99.90;;;;;;5052218;28;20120;-70
2022/09/11 02:54:01;;;;;;;10.25;2.67;;;24.70;99.90;;;;;;5052141;28;20040;-70
2022/09/11 02:56:42;;;;;;;15.75;3.40;;;24.60;99.90;;;;;;5052778;28;20025;-70
2022/09/11 02:59:19;;;;;;;11.75;2.85;;;24.60;99.90;;;;;;5052714;28;20029;-71
2022/09/11 03:01:51;;;;;;;12.50;2.72;;;24.40;99.90;;;;;;5052122;28;20075;-70
2022/09/11 03:04:19;;;;;;;12.85;2.88;;;24.40;99.90;;;;;;5052672;28;20029;-71
2022/09/11 03:06:48;;;;;;;7.93;2.40;;;24.40;99.90;;;;;;5052129;28;20078;-71
2022/09/11 03:09:15;;;;;;;15.40;3.30;;;24.40;99.90;;;;;;5052706;28;20025;-70
2022/09/11 03:11:41;;;;;;;14.23;3.15;;;24.40;99.90;;;;;;5052488;28;20025;-71
2022/09/11 03:14:08;;;;;;;11.50;2.72;;;24.40;99.90;;;;;;5052054;28;20115;-70
2022/09/11 03:16:35;;;;;;;14.88;3.05;;;24.40;99.90;;;;;;5052108;28;20385;-71
2022/09/11 03:19:02;;;;;;;12.85;3.45;;;24.40;99.90;;;;;;5052232;28;20025;-70
2022/09/11 03:21:29;;;;;;;17.02;3.22;;;24.30;99.90;;;;;;5051898;28;20083;-70
2022/09/11 03:23:56;;;;;;;11.45;3.10;;;24.30;99.90;;;;;;5050662;28;20056;-72
2022/09/11 03:26:24;;;;;;;10.82;2.60;;;24.20;99.90;;;;;;5052335;28;20029;-70
2022/09/11 03:28:52;;;;;;;10.90;2.75;;;24.20;99.90;;;;;;5052172;28;20028;-70
2022/09/11 03:31:19;;;;;;;15.40;3.17;;;24.10;99.90;;;;;;5054985;28;20036;-70
2022/09/11 03:33:45;;;;;;;10.88;2.80;;;24.10;99.90;;;;;;5055955;28;20029;-70
2022/09/11 03:36:11;;;;;;;11.43;2.45;;;24.00;99.90;;;;;;5056117;28;20048;-71
2022/09/11 03:38:37;;;;;;;11.82;2.50;;;24.00;99.90;;;;;;5056061;28;20384;-71
2022/09/11 03:41:04;;;;;;;8.48;2.20;;;24.00;99.90;;;;;;5055781;28;20029;-71
2022/09/11 03:43:32;;;;;;;8.65;2.65;;;24.00;99.90;;;;;;5055841;28;20404;-70
2022/09/11 03:45:59;;;;;;;8.90;2.40;;;24.00;99.90;;;;;;5054331;28;20025;-70
2022/09/11 03:48:25;;;;;;;9.77;3.00;;;24.00;99.90;;;;;;5056231;28;20120;-71
2022/09/11 03:50:51;;;;;;;7.97;3.17;;;24.10;99.90;;;;;;5055760;28;20024;-71
2022/09/11 03:53:17;;;;;;;13.52;2.95;;;24.10;99.90;;;;;;5055898;28;20029;-70
2022/09/11 03:55:48;;;;;;;8.93;2.40;;;24.10;99.90;;;;;;5056110;28;20037;-71
2022/09/11 03:58:17;;;;;;;9.52;2.33;;;24.10;99.90;;;;;;5054418;28;20136;-71
2022/09/11 04:00:44;;;;;;;10.77;2.72;;;24.10;99.90;;;;;;5055681;28;20045;-70
2022/09/11 04:03:10;;;;;;;;;;;24.10;99.90;;;;;;5054371;28;20086;-71
2022/09/11 04:05:37;;;;;;;6.65;2.83;;;24.10;99.90;;;;;;5055368;28;19919;-70
2022/09/11 04:08:04;;;;;;;;;;;24.10;99.90;;;;;;5055905;28;20021;-70
2022/09/11 04:10:33;;;;;;;9.05;2.30;;;24.20;99.90;;;;;;5055347;28;20272;-71
2022/09/11 04:13:00;;;;;;;8.80;2.78;;;24.20;99.90;;;;;;5055287;28;20095;-70
2022/09/11 04:15:26;;;;;;;9.30;2.53;;;24.10;99.90;;;;;;5055158;28;20024;-70
2022/09/11 04:17:52;;;;;;;10.75;2.80;;;24.10;99.90;;;;;;5055192;28;20421;-71
2022/09/11 04:20:18;;;;;;;12.30;3.45;;;24.10;99.90;;;;;;5055511;28;20060;-71
2022/09/11 04:22:44;;;;;;;11.00;4.20;;;24.10;99.90;;;;;;5055222;28;20107;-71
2022/09/11 04:25:11;;;;;;;10.27;3.50;;;24.00;99.90;;;;;;5055027;28;20021;-71
2022/09/11 04:27:38;;;;;;;12.13;2.50;;;24.10;99.90;;;;;;5053479;28;20029;-70
2022/09/11 04:30:05;;;;;;;8.55;2.30;;;24.20;99.90;;;;;;5053262;28;20049;-70
2022/09/11 04:32:33;;;;;;;9.05;2.58;;;24.20;99.90;;;;;;5055255;28;20029;-70
2022/09/11 04:35:00;;;;;;;9.90;2.45;;;24.20;99.90;;;;;;5054986;28;20013;-70
2022/09/11 04:37:27;;;;;;;10.90;2.80;;;24.20;99.90;;;;;;5055225;28;20412;-71
2022/09/11 04:39:54;;;;;;;7.95;2.50;;;24.20;99.90;;;;;;5054632;28;20024;-70
2022/09/11 04:42:20;;;;;;;12.85;2.78;;;24.10;99.90;;;;;;5054305;28;20037;-70
2022/09/11 04:44:46;;;;;;;;;;;24.10;99.90;;;;;;5055089;28;20029;-71
2022/09/11 04:47:14;;;;;;;12.77;2.30;;;24.10;99.90;;;;;;5055053;28;20349;-71
2022/09/11 04:49:40;;;;;;;10.70;2.22;;;24.00;99.90;;;;;;5054487;28;20033;-72
2022/09/11 04:52:06;;;;;;;6.82;2.53;;;24.00;99.90;;;;;;5054924;28;20370;-71
2022/09/11 04:54:36;;;;;;;7.47;2.67;;;24.00;99.90;;;;;;5054544;28;20025;-71
2022/09/11 04:57:03;;;;;;;10.00;3.28;;;24.00;99.90;;;;;;5054406;28;20032;-71
2022/09/11 04:59:29;;;;;;;57.13;26.73;;;24.10;99.90;;;;;;5054637;28;20493;-71
2022/09/11 05:01:55;;;;;;;327.85;141.70;;;24.10;99.90;;;;;;5054159;28;20120;-71
2022/09/11 05:04:21;;;;;;;155.40;67.07;;;24.10;99.90;;;;;;5054268;28;20029;-71
2022/09/11 05:06:47;;;;;;;142.20;57.42;;;24.20;99.90;;;;;;5054344;28;20025;-71
2022/09/11 05:09:16;;;;;;;97.95;41.85;;;24.20;99.90;;;;;;5054315;28;20503;-71
2022/09/11 05:11:42;;;;;;;29.00;11.45;;;24.30;99.90;;;;;;5054336;28;20036;-71
2022/09/11 05:14:08;;;;;;;12.15;4.53;;;24.30;99.90;;;;;;5054559;28;20025;-71
2022/09/11 05:16:35;;;;;;;14.60;3.30;;;24.40;99.90;;;;;;5054196;28;20029;-71
2022/09/11 05:19:03;;;;;;;10.10;2.47;;;24.50;99.90;;;;;;5054408;28;20021;-71
2022/09/11 05:21:30;;;;;;;6.50;2.17;;;24.40;99.90;;;;;;5053827;28;20025;-71
2022/09/11 05:23:59;;;;;;;6.47;2.10;;;24.40;99.90;;;;;;5054416;28;20021;-71
2022/09/11 05:26:31;;;;;;;7.40;2.20;;;24.40;99.90;;;;;;5054190;28;20544;-71
2022/09/11 05:29:07;;;;;;;11.18;2.20;;;24.50;99.90;;;;;;5053942;28;20374;-71
2022/09/11 05:31:34;;;;;;;9.25;2.00;;;24.60;99.90;;;;;;5053513;28;20075;-71
2022/09/11 05:34:00;;;;;;;10.68;2.38;;;25.20;99.90;;;;;;5054226;28;20025;-71
2022/09/11 05:36:27;;;;;;;;;;;26.20;99.90;;;;;;5054080;28;20029;-71
2022/09/11 05:38:54;;;;;;;5.78;1.83;;;27.50;99.90;;;;;;5053675;28;19975;-71
2022/09/11 05:41:20;;;;;;;10.32;2.10;;;28.50;99.90;;;;;;5053549;28;20214;-71
2022/09/11 05:43:46;;;;;;;9.10;3.17;;;29.70;99.90;;;;;;5053579;28;20037;-71
2022/09/11 05:46:15;;;;;;;21.27;9.05;;;31.00;99.90;;;;;;5053585;28;20021;-71
2022/09/11 05:48:42;;;;;;;11.57;4.78;;;32.30;99.90;;;;;;5053521;28;20036;-72
2022/09/11 05:51:11;;;;;;;9.52;2.60;;;33.40;99.90;;;;;;5053455;28;20023;-71
2022/09/11 05:53:38;;;;;;;9.50;3.20;;;34.60;99.90;;;;;;5053103;28;20040;-72
2022/09/11 05:56:14;;;;;;;20.20;9.10;;;35.50;99.90;;;;;;5053545;28;20017;-72
2022/09/11 05:58:42;;;;;;;12.32;5.10;;;36.10;99.90;;;;;;5053510;28;20420;-72
2022/09/11 06:01:14;;;;;;;9.30;3.00;;;37.00;99.90;;;;;;5053073;28;20049;-72
2022/09/11 06:03:40;;;;;;;8.25;2.90;;;37.50;99.90;;;;;;5053543;28;20029;-72
2022/09/11 06:06:09;;;;;;;13.50;6.32;;;38.10;99.10;;;;;;5053312;28;20054;-72
2022/09/11 06:08:36;;;;;;;10.63;4.85;;;38.50;98.30;;;;;;5052971;28;20401;-72
2022/09/11 06:11:06;;;;;;;11.98;4.25;;;38.90;97.50;;;;;;5053081;28;20029;-72
2022/09/11 06:13:35;;;;;;;7.97;4.00;;;39.30;96.60;;;;;;5053380;28;20047;-73
2022/09/11 06:16:02;;;;;;;11.32;5.35;;;39.80;96.10;;;;;;5053093;28;20039;-73
2022/09/11 06:18:29;;;;;;;16.23;9.57;;;40.60;95.10;;;;;;5052881;28;20032;-72
2022/09/11 06:21:05;;;;;;;13.32;5.88;;;40.40;94.20;;;;;;5053207;28;20021;-72
2022/09/11 06:23:33;;;;;;;12.40;5.93;;;41.20;94.00;;;;;;5053262;28;20040;-72
2022/09/11 06:26:07;;;;;;;22.48;11.85;;;42.00;93.10;;;;;;5052844;28;20469;-72
2022/09/11 06:28:35;;;;;;;11.45;5.35;;;42.70;92.30;;;;;;5053308;28;20025;-73
2022/09/11 06:31:02;;;;;;;14.45;6.43;;;43.30;91.40;;;;;;5052560;28;20539;-72
2022/09/11 06:33:35;;;;;;;8.80;3.28;;;43.40;90.70;;;;;;5052861;28;20426;-72
2022/09/11 06:36:04;;;;;;;8.25;1.90;;;44.00;90.10;;;;;;5052924;28;20025;-72
2022/09/11 06:38:31;;;;;;;6.53;1.42;;;44.30;88.20;;;;;;5052819;28;20051;-72
2022/09/11 06:41:01;;;;;;;6.53;1.90;;;44.80;87.00;;;;;;5052726;28;20029;-72
2022/09/11 06:43:28;;;;;;;6.72;3.35;;;45.20;85.50;;;;;;5052530;28;20063;-72
2022/09/11 06:45:54;;;;;;;6.15;2.35;;;45.60;84.00;;;;;;5052731;28;20029;-73
2022/09/11 06:48:20;;;;;;;15.95;4.28;;;46.10;82.20;;;;;;5050936;28;20377;-72
2022/09/11 06:50:48;;;;;;;9.98;4.60;;;46.40;81.20;;;;;;5052550;28;20108;-72
2022/09/11 06:53:14;;;;;;;7.85;3.25;;;46.60;80.10;;;;;;5052305;28;20024;-72
2022/09/11 06:55:41;;;;;;;9.73;3.47;;;46.70;81.70;;;;;;5052437;28;20377;-72
2022/09/11 06:58:07;;;;;;;11.32;3.17;;;46.60;79.70;;;;;;5050785;28;20025;-73
2022/09/11 07:00:35;;;;;;;8.95;1.85;;;45.90;79.40;;;;;;5051599;28;20025;-72
2022/09/11 07:03:02;;;;;;;6.05;1.52;;;46.10;79.20;;;;;;5051752;28;20079;-73
2022/09/11 07:05:28;;;;;;;6.38;1.70;;;45.90;79.20;;;;;;5052630;28;20062;-72
2022/09/11 07:07:55;;;;;;;6.00;1.63;;;45.70;78.90;;;;;;5052358;28;20104;-72
2022/09/11 07:10:23;;;;;;;7.93;1.60;;;45.80;78.10;;;;;;5050717;28;20496;-72
2022/09/11 07:12:53;;;;;;;5.43;1.50;;;45.80;77.70;;;;;;5051829;28;20029;-72
2022/09/11 07:15:19;;;;;;;3.95;1.23;;;45.80;77.10;;;;;;5051783;28;20031;-72
2022/09/11 07:17:48;;;;;;;5.78;1.70;;;45.80;76.80;;;;;;5052268;28;20032;-72
2022/09/11 07:20:16;;;;;;;3.50;1.30;;;45.90;76.30;;;;;;5051944;28;20021;-72
2022/09/11 07:22:44;;;;;;;5.40;1.48;;;46.00;76.30;;;;;;5052098;28;20033;-72
2022/09/11 07:25:11;;;;;;;7.50;2.30;;;45.30;76.50;;;;;;5052459;28;20082;-72
2022/09/11 07:27:37;;;;;;;4.10;1.80;;;44.70;76.70;;;;;;5052317;28;20104;-72
2022/09/11 07:30:03;;;;;;;8.15;2.35;;;43.50;79.60;;;;;;5052045;28;20129;-72
2022/09/11 07:32:30;;;;;;;6.50;2.42;;;42.70;81.00;;;;;;5051733;28;20497;-72
2022/09/11 07:34:56;;;;;;;11.18;2.67;;;41.20;81.30;;;;;;5051740;28;20020;-72
2022/09/11 07:37:22;;;;;;;6.20;2.30;;;40.40;84.30;;;;;;5050383;28;20025;-72
2022/09/11 07:39:48;;;;;;;7.25;2.83;;;39.20;86.30;;;;;;5051680;28;20052;-72
2022/09/11 07:42:14;;;;;;;6.88;2.33;;;38.70;87.80;;;;;;5050297;28;20052;-72
2022/09/11 07:44:40;;;;;;;7.88;1.92;;;37.90;88.90;;;;;;5051725;28;20104;-72
2022/09/11 07:47:07;;;;;;;7.82;2.00;;;37.30;89.30;;;;;;5052225;28;20121;-72
2022/09/11 07:49:33;;;;;;;5.38;1.83;;;37.10;90.40;;;;;;5051687;28;20029;-72
2022/09/11 07:52:02;;;;;;;5.15;1.67;;;36.70;90.40;;;;;;5051943;28;20093;-71
2022/09/11 07:54:29;;;;;;;7.60;1.98;;;35.90;91.30;;;;;;5051647;28;20552;-71
2022/09/11 07:56:56;;;;;;;6.78;1.70;;;35.70;91.70;;;;;;5052376;28;20108;-71
2022/09/11 07:59:23;;;;;;;7.75;1.60;;;35.80;91.70;;;;;;5051521;28;20029;-71
2022/09/11 08:01:50;;;;;;;8.63;1.80;;;35.30;91.60;;;;;;5051906;28;20033;-71
2022/09/11 08:04:16;;;;;;;5.55;1.73;;;35.50;91.70;;;;;;5051544;28;20036;-70
2022/09/11 08:06:42;;;;;;;7.22;1.80;;;35.40;91.30;;;;;;5051362;28;20303;-71
2022/09/11 08:09:14;;;;;;;5.85;1.40;;;35.00;92.80;;;;;;5051988;28;20021;-70
2022/09/11 08:11:44;;;;;;;10.13;1.70;;;35.00;93.00;;;;;;5052036;28;20398;-71
2022/09/11 08:14:12;;;;;;;7.93;1.50;;;35.10;93.50;;;;;;5050128;28;20029;-71
2022/09/11 08:16:38;;;;;;;4.95;1.42;;;35.30;92.90;;;;;;5053316;28;20032;-70
2022/09/11 08:19:07;;;;;;;7.75;1.50;;;35.40;92.70;;;;;;5053689;28;20025;-70
2022/09/11 08:21:33;;;;;;;6.00;1.40;;;35.10;93.80;;;;;;5054913;28;20044;-71
2022/09/11 08:24:00;;;;;;;5.20;1.25;;;35.20;94.10;;;;;;5055501;28;20020;-70
2022/09/11 08:26:30;;;;;;;6.53;1.13;;;35.30;91.70;;;;;;5054985;28;20053;-70
2022/09/11 08:28:58;;;;;;;3.50;0.88;;;35.40;89.80;;;;;;5055561;28;20070;-71
2022/09/11 08:31:27;;;;;;;5.50;1.05;;;35.50;89.40;;;;;;5054640;28;20071;-71
2022/09/11 08:33:55;;;;;;;5.20;1.00;;;35.50;88.10;;;;;;5054918;28;20053;-71
2022/09/11 08:36:22;;;;;;;4.00;1.10;;;35.10;88.70;;;;;;5054925;28;20465;-71
2022/09/11 08:38:48;;;;;;;3.38;1.30;;;35.30;88.60;;;;;;5055016;28;20029;-71
2022/09/11 08:41:41;;;;;;;3.72;1.30;;;35.30;90.10;;;;;;5054775;28;20051;-71
2022/09/11 08:44:35;;;;;;;20.85;1.92;;;35.30;91.20;;;;;;5054818;28;20081;-71
2022/09/11 08:47:06;;;;;;;3.97;1.20;;;35.40;91.80;;;;;;5050508;28;20040;-71
2022/09/11 08:49:42;;;;;;;4.60;0.93;;;34.90;92.00;;;;;;5055013;28;20051;-71
2022/09/11 08:52:11;;;;;;;5.40;1.08;;;35.00;91.90;;;;;;5054714;28;20021;-71
2022/09/11 08:54:39;;;;;;;6.25;1.10;;;35.10;91.70;;;;;;5054809;28;20071;-71
2022/09/11 08:57:06;;;;;;;6.68;1.00;;;35.00;92.60;;;;;;5054577;28;20025;-71
2022/09/11 08:59:35;;;;;;;4.90;1.20;;;35.10;93.40;;;;;;5054363;28;20082;-71
2022/09/11 09:02:27;;;;;;;6.72;1.15;;;34.80;93.30;;;;;;5054153;28;20117;-71
2022/09/11 09:04:59;;;;;;;5.28;1.05;;;34.70;93.30;;;;;;5043245;28;20032;-71
2022/09/11 09:07:38;;;;;;;5.55;1.00;;;34.60;93.50;;;;;;5054705;28;20118;-71
2022/09/11 09:10:25;;;;;;;7.00;1.35;;;34.70;94.70;;;;;;5054625;28;20086;-71
2022/09/11 09:13:20;;;;;;;11.05;1.30;;;34.60;94.70;;;;;;5054463;28;20078;-71
2022/09/11 09:15:49;;;;;;;;;;;34.30;95.60;;;;;;5035135;28;20044;-71
2022/09/11 09:18:18;;;;;;;7.45;1.35;;;34.00;96.40;;;;;;5054509;28;19928;-71
2022/09/11 09:20:52;;;;;;;4.45;1.25;;;33.80;97.10;;;;;;5053949;28;20071;-71
2022/09/11 09:23:26;;;;;;;5.43;1.50;;;33.70;97.80;;;;;;5054279;28;20110;-71
2022/09/11 09:25:55;;;;;;;6.25;1.58;;;33.90;97.50;;;;;;5052539;28;20492;-71
2022/09/11 09:28:24;;;;;;;9.52;1.40;;;33.90;97.70;;;;;;5053126;28;20067;-71
2022/09/11 09:30:58;;;;;;;7.28;1.33;;;33.90;98.00;;;;;;5053592;28;20162;-71
2022/09/11 09:34:03;;;;;;;4.78;1.10;;;33.90;98.40;;;;;;5053918;28;20514;-71
2022/09/11 09:36:36;;;;;;;4.75;1.05;;;33.90;99.20;;;;;;5032135;28;20103;-72
2022/09/11 09:39:15;;;;;;;7.20;1.33;;;33.10;99.90;;;;;;5031456;28;20115;-72
2022/09/11 09:42:09;;;;;;;7.53;1.60;;;33.00;99.90;;;;;;5031632;28;20026;-72
2022/09/11 09:44:50;;;;;;;6.27;1.47;;;32.80;99.90;;;;;;5031659;28;20029;-71
2022/09/11 09:47:17;;;;;;;10.02;1.60;;;33.00;99.90;;;;;;5032035;28;20268;-72
2022/09/11 09:49:44;;;;;;;7.38;1.38;;;33.20;99.90;;;;;;5031839;28;20075;-72
2022/09/11 09:52:25;;;;;;;9.65;1.60;;;32.90;99.90;;;;;;5014758;28;20433;-72
2022/09/11 09:54:55;;;;;;;8.77;1.45;;;33.00;99.90;;;;;;5031449;28;20029;-72
2022/09/11 09:57:25;;;;;;;5.85;1.30;;;33.20;99.90;;;;;;5031532;28;20087;-72
2022/09/11 10:00:09;;;;;;;7.80;1.10;;;33.40;99.90;;;;;;5031304;28;20417;-72
2022/09/11 10:02:41;;;;;;;8.23;1.55;;;33.50;99.90;;;;;;5031368;28;20087;-72
2022/09/11 10:05:29;;;;;;;5.70;1.35;;;33.50;99.90;;;;;;5031206;28;20458;-71
2022/09/11 10:07:58;;;;;;;6.57;1.33;;;33.10;99.90;;;;;;5031489;28;20068;-72
2022/09/11 10:10:27;;;;;;;7.97;1.65;;;33.20;99.90;;;;;;5030849;28;20053;-74
2022/09/11 10:12:59;;;;;;;8.18;1.45;;;33.30;99.90;;;;;;5049643;28;20481;-75
2022/09/11 10:15:26;;;;;;;18.10;1.92;;;33.00;99.90;;;;;;5053479;28;20103;-74
2022/09/11 10:17:52;;;;;;;7.93;1.70;;;33.20;99.90;;;;;;5052993;28;20036;-73
2022/09/11 10:20:24;;;;;;;6.95;1.45;;;33.30;99.90;;;;;;5052736;28;20020;-73
2022/09/11 10:22:54;;;;;;;8.57;1.52;;;33.20;99.90;;;;;;5052732;28;20335;-74
2022/09/11 10:25:26;;;;;;;10.55;1.60;;;33.40;99.90;;;;;;5053355;28;20090;-73
2022/09/11 10:28:08;;;;;;;7.68;1.45;;;33.40;99.90;;;;;;5052682;28;20127;-73
2022/09/11 10:30:37;;;;;;;8.18;1.30;;;33.40;99.90;;;;;;5052807;28;20044;-74
2022/09/11 10:33:25;;;;;;;7.55;1.30;;;33.40;99.90;;;;;;5053079;28;20500;-73
2022/09/11 10:35:57;;;;;;;12.50;1.70;;;33.60;99.90;;;;;;5052749;28;20155;-74
2022/09/11 10:38:34;;;;;;;7.07;2.05;;;33.40;99.90;;;;;;5052608;28;20039;-73
2022/09/11 10:41:17;;;;;;;6.85;1.33;;;33.00;99.90;;;;;;5052945;28;20110;-72
2022/09/11 10:44:10;;;;;;;8.15;1.23;;;32.50;99.90;;;;;;5052501;28;20472;-73
2022/09/11 10:46:44;;;;;;;7.18;1.67;;;32.70;99.90;;;;;;5051728;28;20025;-73
2022/09/11 10:49:18;;;;;;;7.35;1.63;;;32.90;99.90;;;;;;5051257;28;20025;-74
2022/09/11 10:52:18;;;;;;;7.43;1.25;;;33.10;99.90;;;;;;5052453;28;20082;-73
2022/09/11 10:55:05;;;;;;;18.48;1.95;;;33.30;99.90;;;;;;5052500;28;20021;-74
2022/09/11 10:57:44;;;;;;;6.20;1.35;;;33.50;99.90;;;;;;5050803;28;20021;-73
2022/09/11 11:00:27;;;;;;;7.88;1.77;;;33.60;99.90;;;;;;5052401;28;20025;-73
2022/09/11 11:03:18;;;;;;;9.85;1.30;;;33.80;99.90;;;;;;5052352;28;20055;-73
2022/09/11 11:06:18;;;;;;;5.57;1.30;;;34.00;99.90;;;;;;5052797;28;20031;-73
2022/09/11 11:09:07;;;;;;;8.63;1.65;;;34.10;99.90;;;;;;5052197;28;20041;-74
2022/09/11 11:11:50;;;;;;;8.43;1.60;;;34.20;99.90;;;;;;5052552;28;20017;-73
2022/09/11 11:14:47;;;;;;;7.38;1.38;;;34.20;99.90;;;;;;5052662;28;20408;-73
2022/09/11 11:17:27;;;;;;;6.20;1.55;;;33.90;99.90;;;;;;5052601;28;20082;-73
2022/09/11 11:20:27;;;;;;;6.07;1.42;;;33.30;99.90;;;;;;5052672;28;20021;-73
2022/09/11 11:23:00;;;;;;;10.85;2.33;;;33.30;99.90;;;;;;5052144;28;20112;-73
2022/09/11 11:26:15;;;;;;;8.40;1.42;;;33.20;99.90;;;;;;5052594;28;20156;-73
2022/09/11 11:29:15;;;;;;;10.43;1.55;;;33.20;99.90;;;;;;5030085;28;20025;-73
2022/09/11 11:32:05;;;;;;;14.82;3.35;;;33.00;99.90;;;;;;5051964;28;20060;-73
2022/09/11 11:34:53;;;;;;;6.10;1.40;;;33.10;99.90;;;;;;5052392;28;20086;-73
2022/09/11 11:37:35;;;;;;;12.85;1.88;;;33.20;99.90;;;;;;5052323;28;20515;-72
2022/09/11 11:40:09;;;;;;;9.20;1.75;;;33.20;99.90;;;;;;5052186;28;20070;-73
2022/09/11 11:42:43;;;;;;;9.50;1.70;;;32.90;99.90;;;;;;5052155;28;20120;-72
2022/09/11 11:45:30;;;;;;;7.05;1.80;;;32.70;99.90;;;;;;5050568;28;20032;-73
2022/09/11 11:48:00;;;;;;;10.05;2.17;;;32.70;99.90;;;;;;5050545;28;20124;-72
2022/09/11 11:50:46;;;;;;;12.82;1.98;;;32.50;99.90;;;;;;5050313;28;20056;-71
2022/09/11 11:53:30;;;;;;;11.63;1.35;;;32.70;99.90;;;;;;5056250;28;20404;-72
2022/09/11 11:56:13;;;;;;;12.40;1.50;;;33.20;99.90;;;;;;5056034;28;20352;-71
2022/09/11 11:58:52;;;;;;;6.60;1.40;;;33.10;99.90;;;;;;5055819;28;20509;-70
2022/09/11 12:01:31;;;;;;;8.80;1.38;;;33.30;99.90;;;;;;5055544;28;20068;-70
2022/09/11 12:04:03;;;;;;;8.88;1.70;;;33.40;99.90;;;;;;5055625;28;20044;-70
2022/09/11 12:06:30;;;;;;;10.35;1.83;;;33.00;99.90;;;;;;5055232;28;20029;-70
2022/09/11 12:08:57;;;;;;;9.05;1.30;;;32.90;99.90;;;;;;5055201;28;20481;-70
2022/09/11 12:11:30;;;;;;;9.27;1.50;;;33.10;99.90;;;;;;5055206;28;20112;-71
2022/09/11 12:13:57;;;;;;;11.82;1.50;;;33.20;99.90;;;;;;5055692;28;20032;-70
2022/09/11 12:16:31;;;;;;;6.90;1.27;;;33.40;99.90;;;;;;5055146;28;20029;-71
2022/09/11 12:19:15;;;;;;;8.23;1.15;;;33.60;99.90;;;;;;5055465;28;20024;-71
2022/09/11 12:21:53;;;;;;;5.32;1.10;;;33.60;99.90;;;;;;5055475;28;20108;-70
2022/09/11 12:24:43;;;;;;;6.32;1.20;;;33.40;99.90;;;;;;5055422;28;20057;-71
2022/09/11 12:27:35;;;;;;;8.10;1.40;;;33.30;99.90;;;;;;5054811;28;20480;-71
2022/09/11 12:30:20;;;;;;;17.33;1.70;;;33.40;99.90;;;;;;5051892;28;20036;-70
2022/09/11 12:32:57;;;;;;;66.60;4.15;;;33.50;99.90;;;;;;5054729;28;20047;-71
2022/09/11 12:35:48;;;;;;;14.13;1.60;;;33.70;99.90;;;;;;5054934;28;20032;-71
2022/09/11 12:38:22;;;;;;;21.13;1.90;;;33.70;99.90;;;;;;5055244;28;20108;-71
2022/09/11 12:41:06;;;;;;;7.10;1.00;;;33.80;99.90;;;;;;5055071;28;20025;-70
2022/09/11 12:43:34;;;;;;;5.35;1.30;;;33.90;99.90;;;;;;5054343;28;20033;-71
2022/09/11 12:46:26;;;;;;;5.35;1.05;;;33.90;99.90;;;;;;5055027;28;20032;-70
2022/09/11 12:49:04;;;;;;;9.80;1.20;;;33.90;99.90;;;;;;5044963;28;20041;-70
2022/09/11 12:51:35;;;;;;;13.80;1.38;;;33.90;99.90;;;;;;5054965;28;20051;-70
2022/09/11 12:54:11;;;;;;;14.73;1.60;;;33.70;99.90;;;;;;5054858;28;20477;-70
2022/09/11 12:57:11;;;;;;;11.88;1.60;;;33.60;99.90;;;;;;5054470;28;20059;-70
2022/09/11 12:59:42;;;;;;;9.07;1.33;;;33.40;99.90;;;;;;5053054;28;20079;-70
2022/09/11 13:02:38;;;;;;;11.07;1.60;;;33.10;99.90;;;;;;5054078;28;20036;-70
2022/09/11 13:05:15;;;;;;;5.95;1.23;;;33.10;99.90;;;;;;5049175;28;20155;-70
2022/09/11 13:07:46;;;;;;;7.40;1.50;;;33.00;99.90;;;;;;5054338;28;20021;-70
2022/09/11 13:10:32;;;;;;;8.93;1.58;;;32.70;99.90;;;;;;5054374;28;20025;-70
2022/09/11 13:13:01;;;;;;;7.97;1.50;;;32.60;99.90;;;;;;5054192;28;20021;-70
2022/09/11 13:15:36;;;;;;;14.32;1.40;;;32.80;99.90;;;;;;5053894;28;20094;-70